Terminal Aerodrome Forecast
Issued by NWS

Home | Current Version | Previous Version | Text Only | Print | Product List | Glossary On
Versions: 1 2 3 4 5 6 7 8 9 10 11 12 13 14 15 16 17 18 19 20 21 22 23 24 25 26 27 28 29 30 31 32 33
000
FTUS41 KBOX 031121
TAFFMH
TAF
KFMH 031121Z 0312/0412 02007KT P6SM BKN015
     FM031500 03008KT P6SM SCT015 BKN250
     FM032100 06008KT P6SM SKC
     FM040500 08004KT P6SM FEW250=

USA.gov is the U.S. government's official web portal to all federal, state and local government web resources and services.